Time;durP1;ratioP1;P1;durP2;ratioP2;P2;SDS_P1;SDS_P2;PMS_P1;PMS_P2;Temp;Humidity;BMP_temperature;BMP_pressure;BME280_temperature;BME280_humidity;BME280_pressure;Samples;Min_cycle;Max_cycle;Signal;HPM_P1;HPM_P2
2022/11/10 00:00:27;;;;;;;11.33;3.50;;;9.80;99.90;;;;;;10465111;28;20215;-74
2022/11/10 00:05:29;;;;;;;8.87;3.87;;;9.80;99.90;;;;;;10456406;28;20234;-74
2022/11/10 00:10:29;;;;;;;12.77;4.33;;;9.70;99.90;;;;;;10470658;28;20229;-75
2022/11/10 00:20:49;;;;;;;6.57;3.80;;;9.70;99.90;;;;;;10463036;28;20218;-73
2022/11/10 00:25:50;;;;;;;7.43;3.97;;;9.60;99.90;;;;;;10462912;28;20223;-73
2022/11/10 00:30:50;;;;;;;6.67;3.77;;;9.60;99.90;;;;;;10476985;28;20218;-75
2022/11/10 00:35:51;;;;;;;9.27;4.60;;;9.60;99.90;;;;;;10472640;28;20220;-75
2022/11/10 00:40:51;;;;;;;8.50;4.20;;;9.50;99.90;;;;;;10477246;28;20215;-75
2022/11/10 00:45:52;;;;;;;13.80;4.73;;;9.50;99.90;;;;;;10464754;28;20214;-75
2022/11/10 00:50:53;;;;;;;9.20;4.40;;;9.50;99.90;;;;;;10462671;28;20380;-72
2022/11/10 00:55:54;;;;;;;10.80;4.73;;;9.40;99.90;;;;;;10473989;28;20724;-72
2022/11/10 01:01:02;;;;;;;11.17;5.03;;;9.50;99.90;;;;;;10470859;28;20588;-74
2022/11/10 01:06:07;;;;;;;9.20;4.57;;;9.50;99.90;;;;;;10471555;28;20902;-74
2022/11/10 01:11:25;;;;;;;10.43;5.17;;;9.50;99.90;;;;;;10477776;28;20689;-76
2022/11/10 01:16:29;;;;;;;9.17;4.57;;;9.40;99.90;;;;;;10465801;28;20233;-75
2022/11/10 01:21:30;;;;;;;12.03;5.23;;;9.30;99.90;;;;;;10469600;28;20229;-75
2022/11/10 01:26:30;;;;;;;14.90;5.40;;;9.30;99.90;;;;;;10446876;28;20212;-76
2022/11/10 01:31:34;;;;;;;11.20;4.53;;;9.30;99.90;;;;;;10470311;28;20225;-74
2022/11/10 01:36:34;;;;;;;10.30;5.20;;;9.30;99.90;;;;;;10463437;28;20249;-74
2022/11/10 01:41:35;;;;;;;9.30;4.80;;;9.20;99.90;;;;;;10476896;28;20244;-75
2022/11/10 01:46:36;;;;;;;11.63;5.67;;;9.20;99.90;;;;;;10464889;28;20626;-76
2022/11/10 01:52:05;;;;;;;12.97;6.30;;;9.20;99.90;;;;;;10476780;28;20229;-76
2022/11/10 01:57:10;;;;;;;16.13;5.47;;;9.20;99.90;;;;;;10473487;28;20218;-74
2022/11/10 02:02:27;;;;;;;17.10;5.77;;;9.20;99.90;;;;;;10470729;28;20223;-75
2022/11/10 02:07:30;;;;;;;12.00;5.87;;;9.20;99.90;;;;;;10474482;28;20236;-73
2022/11/10 02:12:37;;;;;;;17.63;6.23;;;9.20;99.90;;;;;;10463467;28;20229;-74
2022/11/10 02:17:39;;;;;;;13.20;5.90;;;9.20;99.90;;;;;;10468872;28;20265;-74
2022/11/10 02:22:43;;;;;;;15.40;5.57;;;9.20;99.90;;;;;;10474837;28;20237;-78
2022/11/10 02:27:43;;;;;;;16.23;6.20;;;9.10;99.90;;;;;;10468583;28;20326;-78
2022/11/10 02:32:44;;;;;;;13.60;5.73;;;9.10;99.90;;;;;;10468004;28;20240;-77
2022/11/10 02:37:44;;;;;;;10.97;5.47;;;9.10;99.90;;;;;;10461067;28;20276;-75
2022/11/10 02:42:45;;;;;;;10.93;6.33;;;9.10;99.90;;;;;;10469964;28;20331;-74
2022/11/10 02:47:46;;;;;;;19.47;7.00;;;9.10;99.90;;;;;;10490920;28;20619;-75
2022/11/10 02:52:46;;;;;;;15.13;6.57;;;9.00;99.90;;;;;;10490731;28;20321;-75
2022/11/10 02:57:57;;;;;;;14.63;5.93;;;9.00;99.90;;;;;;10463474;28;20305;-75
2022/11/10 03:03:00;;;;;;;13.60;6.97;;;9.00;99.90;;;;;;10468959;28;20697;-76
2022/11/10 03:08:02;;;;;;;18.57;7.10;;;8.90;99.90;;;;;;10464604;28;20334;-75
2022/11/10 03:13:03;;;;;;;12.50;6.90;;;8.90;99.90;;;;;;10488109;28;20224;-75
2022/11/10 03:18:04;;;;;;;21.67;6.70;;;8.90;99.90;;;;;;10509274;28;20599;-75
2022/11/10 03:23:05;;;;;;;16.57;7.03;;;8.80;99.90;;;;;;10502428;28;20590;-75
2022/11/10 03:28:06;;;;;;;18.87;6.43;;;8.80;99.90;;;;;;10517990;28;20236;-76
2022/11/10 03:33:07;;;;;;;14.33;7.00;;;8.80;99.90;;;;;;10512609;28;20241;-76
2022/11/10 03:38:08;;;;;;;14.17;7.10;;;8.80;99.90;;;;;;10508147;28;20227;-77
2022/11/10 03:43:11;;;;;;;15.20;6.30;;;8.90;99.90;;;;;;10509578;28;20715;-76
2022/11/10 03:48:12;;;;;;;19.07;7.27;;;8.90;99.90;;;;;;10505204;28;20327;-76
2022/11/10 03:53:12;;;;;;;14.90;6.60;;;8.90;99.90;;;;;;10504841;28;20236;-76
2022/11/10 03:58:13;;;;;;;11.50;6.83;;;8.90;99.90;;;;;;10508057;28;20224;-77
2022/11/10 04:03:14;;;;;;;15.40;7.27;;;8.80;99.90;;;;;;10508610;28;20232;-76
2022/11/10 04:19:06;;;;;;;16.80;7.87;;;8.80;99.90;;;;;;10514660;28;20232;-77
2022/11/10 04:24:07;;;;;;;18.97;8.23;;;8.80;99.90;;;;;;10507961;28;20222;-77
2022/11/10 04:29:10;;;;;;;18.63;9.37;;;8.70;99.90;;;;;;10507039;28;20299;-78
2022/11/10 04:34:13;;;;;;;22.27;8.60;;;8.80;99.90;;;;;;10504762;28;20260;-73
2022/11/10 04:39:14;;;;;;;27.43;9.97;;;8.70;99.90;;;;;;10461916;28;20665;-77
2022/11/10 04:44:18;;;;;;;15.10;9.07;;;8.70;99.90;;;;;;10456972;28;20690;-76
2022/11/10 04:49:18;;;;;;;18.27;9.30;;;8.70;99.90;;;;;;10466328;28;20233;-75
2022/11/10 04:54:19;;;;;;;27.57;10.73;;;8.70;99.90;;;;;;10478665;28;20227;-78
2022/11/10 04:59:20;;;;;;;21.40;10.03;;;8.70;99.90;;;;;;10476894;28;20229;-77
2022/11/10 05:04:21;;;;;;;24.97;10.90;;;8.70;99.90;;;;;;10504546;28;20224;-77
2022/11/10 05:09:21;;;;;;;22.77;9.80;;;8.70;99.90;;;;;;10504853;28;20278;-78
2022/11/10 05:14:22;;;;;;;24.83;10.17;;;8.70;99.90;;;;;;10514390;28;20308;-79
2022/11/10 05:19:23;;;;;;;25.00;10.37;;;8.70;99.90;;;;;;10481115;28;20220;-76
2022/11/10 05:24:23;;;;;;;27.60;10.93;;;8.70;99.90;;;;;;10473098;28;20227;-77
2022/11/10 05:29:24;;;;;;;31.37;11.60;;;8.70;99.90;;;;;;10497651;28;20306;-77
2022/11/10 05:34:25;;;;;;;24.27;10.77;;;8.70;99.90;;;;;;10464531;28;20227;-76
2022/11/10 05:39:25;;;;;;;23.30;11.23;;;8.60;99.90;;;;;;10471831;28;20332;-75
2022/11/10 05:44:26;;;;;;;31.10;11.90;;;8.60;99.90;;;;;;10465297;28;20809;-75
2022/11/10 05:49:26;;;;;;;28.40;11.50;;;8.60;99.90;;;;;;10477868;28;20701;-77
2022/11/10 05:54:27;;;;;;;27.70;11.87;;;8.60;99.90;;;;;;10456776;28;20316;-76
2022/11/10 05:59:28;;;;;;;18.23;10.50;;;8.70;99.90;;;;;;10470071;28;20243;-77
2022/11/10 06:04:28;;;;;;;30.47;14.20;;;8.60;99.90;;;;;;10468663;28;20242;-69
2022/11/10 06:09:29;;;;;;;53.37;21.47;;;8.60;99.90;;;;;;10466732;28;20230;-70
2022/11/10 06:14:29;;;;;;;51.47;23.57;;;8.70;99.90;;;;;;10466850;28;20308;-69
2022/11/10 06:19:30;;;;;;;32.23;17.40;;;8.70;99.90;;;;;;10475230;28;20685;-69
2022/11/10 06:24:30;;;;;;;37.63;20.93;;;8.70;99.90;;;;;;10471697;28;20254;-69
2022/11/10 06:29:31;;;;;;;30.53;15.03;;;8.70;99.90;;;;;;10450456;28;20233;-70
2022/11/10 06:34:32;;;;;;;29.33;17.60;;;8.70;99.90;;;;;;10474377;28;20220;-70
2022/11/10 06:39:32;;;;;;;27.77;17.20;;;8.70;99.90;;;;;;10465042;28;20275;-78
2022/11/10 06:44:33;;;;;;;27.83;14.43;;;8.80;99.90;;;;;;10461661;28;20642;-75
2022/11/10 06:49:33;;;;;;;25.87;14.23;;;8.80;99.90;;;;;;10466142;28;20225;-75
2022/11/10 06:54:34;;;;;;;23.70;13.07;;;8.90;99.90;;;;;;10469385;28;20231;-73
2022/11/10 06:59:34;;;;;;;21.80;11.57;;;9.00;99.90;;;;;;10468250;28;20231;-73
2022/11/10 07:04:35;;;;;;;21.43;11.17;;;9.10;99.90;;;;;;10472812;28;20218;-73
2022/11/10 07:09:36;;;;;;;20.90;10.40;;;9.00;99.90;;;;;;10464630;28;20226;-73
2022/11/10 07:14:37;;;;;;;15.17;10.60;;;9.00;99.90;;;;;;10460525;28;20224;-74
2022/11/10 07:19:37;;;;;;;21.57;10.20;;;9.10;99.90;;;;;;10471081;28;20650;-74
2022/11/10 07:24:38;;;;;;;18.70;11.13;;;9.30;99.90;;;;;;10465222;28;20226;-74
2022/11/10 07:29:38;;;;;;;16.23;9.90;;;9.40;99.90;;;;;;10469174;28;20232;-78
2022/11/10 07:34:39;;;;;;;14.23;9.53;;;9.60;99.90;;;;;;10472030;28;20865;-75
2022/11/10 07:39:40;;;;;;;18.80;9.23;;;9.80;99.90;;;;;;10466087;28;20888;-75
2022/11/10 07:44:40;;;;;;;14.00;8.80;;;10.00;99.90;;;;;;10455182;28;20838;-75
2022/11/10 07:49:41;;;;;;;15.53;8.87;;;10.20;99.90;;;;;;10470655;28;20254;-75
2022/11/10 07:54:41;;;;;;;18.07;8.43;;;10.40;99.90;;;;;;10519196;28;20222;-75
2022/11/10 07:59:42;;;;;;;13.23;6.90;;;11.20;99.90;;;;;;10512439;28;20222;-75
2022/11/10 08:04:42;;;;;;;11.20;5.20;;;14.30;99.90;;;;;;10510506;28;20253;-74
2022/11/10 08:09:43;;;;;;;7.20;4.33;;;16.60;99.90;;;;;;10506749;28;20578;-74
2022/11/10 08:14:44;;;;;;;5.47;3.70;;;19.20;99.90;;;;;;10511540;28;20715;-75
2022/11/10 08:19:44;;;;;;;7.10;4.00;;;21.40;99.90;;;;;;10514221;28;20308;-75
2022/11/10 08:24:45;;;;;;;9.07;3.80;;;22.70;99.90;;;;;;10510502;28;20590;-75
2022/11/10 08:29:46;;;;;;;10.63;3.87;;;23.70;96.40;;;;;;10507627;28;20241;-74
2022/11/10 08:34:46;;;;;;;8.57;3.67;;;24.60;91.10;;;;;;10510470;28;20758;-75
2022/11/10 08:39:47;;;;;;;7.33;3.60;;;25.30;83.90;;;;;;10505788;28;20237;-75
2022/11/10 08:44:47;;;;;;;6.63;3.47;;;26.00;77.10;;;;;;10509338;28;20246;-75
2022/11/10 08:49:48;;;;;;;7.90;3.83;;;26.60;71.80;;;;;;10516519;28;20227;-74
2022/11/10 08:54:48;;;;;;;7.83;4.07;;;27.10;67.30;;;;;;10514753;28;20215;-74
2022/11/10 08:59:49;;;;;;;8.97;3.87;;;27.50;62.50;;;;;;10518741;28;20868;-75
2022/11/10 09:04:49;;;;;;;7.13;3.40;;;27.60;61.70;;;;;;10510133;28;20243;-74
2022/11/10 09:09:50;;;;;;;6.73;3.87;;;28.30;58.80;;;;;;10517693;28;20233;-74
2022/11/10 09:14:50;;;;;;;8.57;3.30;;;28.70;56.40;;;;;;10514066;28;20225;-74
2022/11/10 09:19:51;;;;;;;7.43;3.00;;;28.80;55.00;;;;;;10505628;28;20218;-75
2022/11/10 09:24:51;;;;;;;8.73;3.60;;;29.00;56.20;;;;;;10517734;28;20618;-74
2022/11/10 09:29:52;;;;;;;7.13;3.60;;;29.70;52.60;;;;;;10521445;28;20230;-75
2022/11/10 09:34:53;;;;;;;7.33;3.30;;;29.50;51.90;;;;;;10514802;28;20209;-74
2022/11/10 09:39:53;;;;;;;8.93;3.50;;;29.90;52.10;;;;;;10506480;28;20278;-75
2022/11/10 09:45:03;;;;;;;8.50;3.97;;;30.30;50.40;;;;;;10514070;28;20224;-74
2022/11/10 09:50:05;;;;;;;8.47;3.63;;;30.00;49.60;;;;;;10514305;28;20235;-73
2022/11/10 09:55:28;;;;;;;10.40;3.47;;;30.10;49.40;;;;;;10512482;28;20219;-74
2022/11/10 10:00:32;;;;;;;7.60;3.67;;;29.00;50.10;;;;;;10510069;28;20705;-74
2022/11/10 10:06:09;;;;;;;7.40;3.60;;;28.70;52.70;;;;;;10503210;28;20215;-74
2022/11/10 10:11:48;;;;;;;12.33;3.27;;;27.20;53.30;;;;;;10461855;28;20341;-74
2022/11/10 10:17:18;;;;;;;9.40;3.23;;;24.40;58.20;;;;;;10506406;28;20584;-73
2022/11/10 10:22:49;;;;;;;8.17;3.07;;;21.20;70.90;;;;;;10494886;28;20725;-75
2022/11/10 10:28:19;;;;;;;11.80;3.60;;;22.20;68.10;;;;;;10521369;28;20220;-74
2022/11/10 10:33:22;;;;;;;15.63;4.07;;;21.90;71.30;;;;;;10510180;28;20318;-74
2022/11/10 10:38:31;;;;;;;8.97;3.63;;;20.80;73.70;;;;;;10515331;28;20684;-74
2022/11/10 10:43:32;;;;;;;11.17;4.13;;;20.20;77.80;;;;;;10514506;28;20212;-75
2022/11/10 10:48:33;;;;;;;12.40;3.90;;;18.90;82.80;;;;;;10515930;28;20234;-74
2022/11/10 10:53:45;;;;;;;13.77;3.90;;;18.30;88.00;;;;;;10504372;28;20595;-74
2022/11/10 10:58:51;;;;;;;9.77;4.27;;;19.30;87.90;;;;;;10512129;28;20265;-74
2022/11/10 11:03:52;;;;;;;12.37;3.90;;;19.80;83.90;;;;;;10523033;28;20618;-73
2022/11/10 11:09:06;;;;;;;9.63;3.50;;;19.50;85.20;;;;;;10512725;28;20219;-74
2022/11/10 11:14:28;;;;;;;9.53;3.10;;;19.10;87.80;;;;;;10511738;28;20222;-73
2022/11/10 11:19:53;;;;;;;12.17;3.50;;;18.50;89.20;;;;;;10508193;28;20214;-73
2022/11/10 11:24:59;;;;;;;8.20;3.70;;;17.60;92.10;;;;;;10521031;28;20214;-73
2022/11/10 11:30:18;;;;;;;8.57;3.20;;;17.00;93.50;;;;;;10511231;28;20228;-74
2022/11/10 11:35:43;;;;;;;10.17;3.50;;;16.50;95.90;;;;;;10507275;28;20219;-74
2022/11/10 11:41:00;;;;;;;14.47;4.50;;;16.30;97.50;;;;;;10500770;28;20252;-74
2022/11/10 11:46:13;;;;;;;10.37;3.43;;;16.00;99.60;;;;;;10511621;28;20214;-75
2022/11/10 11:51:43;;;;;;;7.93;3.30;;;15.90;99.90;;;;;;10508385;28;20230;-74
2022/11/10 11:56:47;;;;;;;10.13;3.20;;;15.80;99.90;;;;;;10515896;28;20218;-73
2022/11/10 12:02:10;;;;;;;10.97;3.60;;;15.80;99.90;;;;;;10512305;28;20221;-74
2022/11/10 12:07:19;;;;;;;9.37;3.20;;;15.70;99.90;;;;;;10511903;28;20681;-74
2022/11/10 12:13:07;;;;;;;10.23;3.20;;;15.60;99.90;;;;;;10507220;28;20261;-73
2022/11/10 12:18:30;;;;;;;8.47;3.20;;;15.30;99.90;;;;;;10507266;28;20226;-73
2022/11/10 12:24:00;;;;;;;11.37;3.70;;;15.30;99.90;;;;;;10505346;28;20219;-73
2022/11/10 12:29:11;;;;;;;7.87;2.67;;;15.20;99.90;;;;;;10499784;28;20217;-73
2022/11/10 12:34:31;;;;;;;6.97;2.73;;;15.30;99.90;;;;;;10508328;28;20681;-74
2022/11/10 12:39:46;;;;;;;8.87;2.77;;;15.40;99.90;;;;;;10513325;28;20250;-73
2022/11/10 12:45:04;;;;;;;9.77;2.90;;;15.40;99.90;;;;;;10501740;28;20681;-74
2022/11/10 12:50:41;;;;;;;7.13;2.50;;;15.30;99.90;;;;;;10506662;28;20703;-74
2022/11/10 12:55:48;;;;;;;9.40;2.87;;;15.20;99.90;;;;;;10508083;28;20296;-73
2022/11/10 13:00:59;;;;;;;7.73;2.73;;;15.10;99.90;;;;;;10509838;28;20689;-74
2022/11/10 13:06:02;;;;;;;11.43;2.70;;;15.00;99.90;;;;;;10501839;28;20214;-74
2022/11/10 13:11:18;;;;;;;9.57;3.00;;;15.00;99.90;;;;;;10508825;28;20250;-74
2022/11/10 13:16:37;;;;;;;10.87;2.63;;;14.90;99.90;;;;;;10521976;28;20243;-73
2022/11/10 13:21:50;;;;;;;8.80;2.50;;;14.80;99.90;;;;;;10504607;28;20237;-73
2022/11/10 13:26:54;;;;;;;9.33;2.40;;;14.80;99.90;;;;;;10506908;28;20276;-74
2022/11/10 13:31:56;;;;;;;7.17;2.43;;;14.70;99.90;;;;;;10509268;28;20226;-74
2022/11/10 13:36:57;;;;;;;6.23;2.27;;;14.70;99.90;;;;;;10521773;28;20234;-75
2022/11/10 13:42:00;;;;;;;6.43;2.40;;;14.60;99.90;;;;;;10511456;28;20807;-74
2022/11/10 13:47:06;;;;;;;13.20;2.50;;;14.50;99.90;;;;;;10516535;28;20230;-74
2022/11/10 13:52:07;;;;;;;8.07;2.57;;;14.50;99.90;;;;;;10515671;28;20244;-74
2022/11/10 13:57:29;;;;;;;5.23;2.00;;;14.40;99.90;;;;;;10514081;28;20580;-74
2022/11/10 14:02:38;;;;;;;5.53;2.37;;;14.40;99.90;;;;;;10525115;28;20677;-73
2022/11/10 14:07:43;;;;;;;9.87;2.27;;;14.30;99.90;;;;;;10503284;28;20714;-74
2022/11/10 14:12:55;;;;;;;6.63;2.47;;;14.20;99.90;;;;;;10518275;28;20314;-75
2022/11/10 14:17:57;;;;;;;8.80;2.57;;;14.20;99.90;;;;;;10510128;28;20294;-74
2022/11/10 14:22:59;;;;;;;8.13;2.57;;;14.10;99.90;;;;;;10512874;28;20223;-73
2022/11/10 14:28:21;;;;;;;7.03;2.33;;;14.00;99.90;;;;;;10513163;28;20218;-74
2022/11/10 14:33:24;;;;;;;6.43;2.20;;;14.00;99.90;;;;;;10508959;28;20226;-74
2022/11/10 14:38:27;;;;;;;4.87;2.43;;;13.90;99.90;;;;;;10518444;28;20239;-75
2022/11/10 14:43:38;;;;;;;5.47;1.80;;;13.80;99.90;;;;;;10517182;28;20220;-75
2022/11/10 14:48:39;;;;;;;12.07;2.27;;;13.70;99.90;;;;;;10497033;28;20245;-72
2022/11/10 14:54:01;;;;;;;7.07;2.17;;;13.60;99.90;;;;;;10510390;28;20304;-73
2022/11/10 14:59:05;;;;;;;7.73;2.20;;;13.50;99.90;;;;;;10512272;28;20305;-74
2022/11/10 15:04:09;;;;;;;5.93;2.40;;;13.40;99.90;;;;;;10517822;28;20217;-74
2022/11/10 15:09:20;;;;;;;8.40;2.60;;;13.30;99.90;;;;;;10508210;28;20222;-74
2022/11/10 15:14:35;;;;;;;5.43;2.20;;;13.10;99.90;;;;;;10508168;28;20763;-74
2022/11/10 15:19:52;;;;;;;7.07;2.47;;;13.00;99.90;;;;;;10500203;28;20253;-74
2022/11/10 15:24:54;;;;;;;6.50;2.33;;;12.90;99.90;;;;;;10512248;28;20223;-73
2022/11/10 15:29:58;;;;;;;5.67;2.60;;;12.70;99.90;;;;;;10510049;28;20248;-74
2022/11/10 15:35:24;;;;;;;5.77;2.63;;;12.60;99.90;;;;;;10514078;28;20648;-73
2022/11/10 15:40:30;;;;;;;7.90;2.90;;;12.40;99.90;;;;;;10469420;28;20223;-74
2022/11/10 15:45:30;;;;;;;9.77;2.60;;;12.20;99.90;;;;;;10465238;28;20216;-74
2022/11/10 15:50:31;;;;;;;10.23;2.73;;;12.10;99.90;;;;;;10455133;28;20630;-75
2022/11/10 15:55:34;;;;;;;9.30;2.60;;;11.90;99.90;;;;;;10462550;28;20701;-74
2022/11/10 16:00:34;;;;;;;8.07;3.10;;;11.80;99.90;;;;;;10463804;28;20208;-74
2022/11/10 16:05:38;;;;;;;6.97;2.53;;;11.60;99.90;;;;;;10464264;28;20208;-74
2022/11/10 16:10:41;;;;;;;7.70;3.10;;;11.50;99.90;;;;;;10470745;28;20262;-74
2022/11/10 16:15:46;;;;;;;7.63;3.00;;;11.40;99.90;;;;;;10472436;28;20306;-74
2022/11/10 16:20:48;;;;;;;8.17;3.10;;;11.30;99.90;;;;;;10470405;28;20624;-75
2022/11/10 16:25:53;;;;;;;5.40;3.07;;;11.20;99.90;;;;;;10465753;28;20247;-74
2022/11/10 16:30:54;;;;;;;6.87;2.93;;;11.10;99.90;;;;;;10468940;28;20223;-75
2022/11/10 16:35:55;;;;;;;9.60;3.63;;;11.10;99.90;;;;;;10466940;28;20614;-75
2022/11/10 16:41:03;;;;;;;10.23;3.23;;;10.90;99.90;;;;;;10463248;28;20218;-74
2022/11/10 16:46:12;;;;;;;9.07;2.77;;;10.80;99.90;;;;;;10466970;28;20227;-73
2022/11/10 16:51:16;;;;;;;5.77;3.17;;;10.80;99.90;;;;;;10478940;28;20234;-74
2022/11/10 16:56:19;;;;;;;6.40;2.97;;;10.70;99.90;;;;;;10501982;28;20221;-74
2022/11/10 17:01:23;;;;;;;7.40;3.83;;;10.50;99.90;;;;;;10497484;28;20218;-74
2022/11/10 17:06:26;;;;;;;9.03;3.33;;;10.40;99.90;;;;;;10500407;28;20313;-74
2022/11/10 17:11:26;;;;;;;6.70;2.90;;;10.30;99.90;;;;;;10517287;28;20752;-74
2022/11/10 17:16:35;;;;;;;8.27;3.33;;;10.30;99.90;;;;;;10518747;28;20214;-74
2022/11/10 17:21:37;;;;;;;4.73;3.00;;;10.20;99.90;;;;;;10505102;28;20233;-74
2022/11/10 17:26:38;;;;;;;9.27;3.40;;;10.20;99.90;;;;;;10517499;28;20224;-74
2022/11/10 17:31:38;;;;;;;7.13;3.93;;;10.10;99.90;;;;;;10510774;28;20241;-73
2022/11/10 17:36:39;;;;;;;9.80;4.33;;;10.10;99.90;;;;;;10515970;28;20287;-74
2022/11/10 17:41:40;;;;;;;9.83;4.47;;;10.00;99.90;;;;;;10512482;28;20303;-74
2022/11/10 17:46:42;;;;;;;8.33;4.50;;;10.00;99.90;;;;;;10512310;28;20214;-75
2022/11/10 17:51:43;;;;;;;6.83;4.00;;;9.90;99.90;;;;;;10523713;28;20303;-74
2022/11/10 17:56:43;;;;;;;11.13;4.87;;;9.90;99.90;;;;;;10519193;28;20711;-74
2022/11/10 18:01:44;;;;;;;7.83;5.00;;;9.80;99.90;;;;;;10516947;28;20308;-75
2022/11/10 18:06:44;;;;;;;11.33;5.20;;;9.70;99.90;;;;;;10511909;28;20770;-74
2022/11/10 18:11:46;;;;;;;13.57;5.83;;;9.70;99.90;;;;;;10518011;28;20256;-77
2022/11/10 18:16:47;;;;;;;14.90;6.17;;;9.60;99.90;;;;;;10484485;28;20292;-75
2022/11/10 18:21:48;;;;;;;9.43;6.80;;;9.60;99.90;;;;;;10514666;28;20245;-74
2022/11/10 18:26:48;;;;;;;22.10;13.17;;;9.50;99.90;;;;;;10518969;28;20586;-74
2022/11/10 18:31:49;;;;;;;15.33;8.33;;;9.60;99.90;;;;;;10514099;28;20233;-75
2022/11/10 18:36:51;;;;;;;10.37;7.03;;;9.60;99.90;;;;;;10504458;28;20876;-75
2022/11/10 18:41:54;;;;;;;8.27;5.40;;;9.50;99.90;;;;;;10503923;28;20223;-77
2022/11/10 18:46:55;;;;;;;10.10;6.17;;;9.50;99.90;;;;;;10511876;28;20221;-77
2022/11/10 18:51:57;;;;;;;7.87;4.77;;;9.40;99.90;;;;;;10506330;28;20278;-80
2022/11/10 18:56:58;;;;;;;11.83;6.07;;;9.40;99.90;;;;;;10499061;28;20218;-75
2022/11/10 19:01:58;;;;;;;7.90;4.90;;;9.30;99.90;;;;;;10500260;28;20265;-75
2022/11/10 19:06:59;;;;;;;9.20;5.03;;;9.20;99.90;;;;;;10495590;28;20220;-76
2022/11/10 19:12:01;;;;;;;8.00;4.50;;;9.20;99.90;;;;;;10501582;28;20221;-79
2022/11/10 19:17:02;;;;;;;7.23;5.00;;;9.10;99.90;;;;;;10492390;28;20293;-79
2022/11/10 19:22:03;;;;;;;7.50;5.13;;;9.00;99.90;;;;;;10493241;28;20233;-77
2022/11/10 19:27:06;;;;;;;11.40;5.70;;;8.90;99.90;;;;;;10497503;28;20256;-77
2022/11/10 19:32:07;;;;;;;12.03;6.67;;;8.90;99.90;;;;;;10505660;28;20225;-78
2022/11/10 19:37:07;;;;;;;10.40;5.80;;;8.80;99.90;;;;;;10491172;28;20228;-77
2022/11/10 19:42:08;;;;;;;10.67;5.67;;;8.80;99.90;;;;;;10475446;28;20209;-78
2022/11/10 19:47:09;;;;;;;10.17;6.20;;;8.70;99.90;;;;;;10473268;28;20295;-78
2022/11/10 19:52:10;;;;;;;10.37;6.90;;;8.70;99.90;;;;;;10482604;28;20221;-78
2022/11/10 19:57:10;;;;;;;9.37;6.60;;;8.60;99.90;;;;;;10480295;28;20217;-79
2022/11/10 20:02:11;;;;;;;9.17;5.97;;;8.60;99.90;;;;;;10465485;28;20222;-78
2022/11/10 20:12:31;;;;;;;8.77;6.47;;;8.40;99.90;;;;;;10474562;28;20227;-78
2022/11/10 20:17:31;;;;;;;8.83;6.33;;;8.40;99.90;;;;;;10473178;28;20214;-78
2022/11/10 20:22:32;;;;;;;11.30;6.30;;;8.40;99.90;;;;;;10480772;28;20636;-79
2022/11/10 20:27:33;;;;;;;11.10;6.03;;;8.30;99.90;;;;;;10465820;28;20240;-78
2022/11/10 20:32:33;;;;;;;11.03;5.97;;;8.30;99.90;;;;;;10475995;28;20769;-80
2022/11/10 20:37:34;;;;;;;8.10;5.27;;;8.20;99.90;;;;;;10474522;28;20222;-82
2022/11/10 20:42:36;;;;;;;11.17;5.23;;;8.20;99.90;;;;;;10462714;28;20609;-78
2022/11/10 20:47:37;;;;;;;9.27;5.40;;;8.10;99.90;;;;;;10478445;28;20684;-78
2022/11/10 20:52:37;;;;;;;7.37;5.37;;;8.10;99.90;;;;;;10475145;28;20232;-77
2022/11/10 20:57:38;;;;;;;10.20;5.13;;;8.10;99.90;;;;;;10477265;28;20354;-80
2022/11/10 21:02:40;;;;;;;11.17;5.90;;;8.10;99.90;;;;;;10476196;28;20215;-74
2022/11/10 21:07:40;;;;;;;12.97;6.70;;;8.00;99.90;;;;;;10470522;28;20216;-75
2022/11/10 21:12:50;;;;;;;9.07;5.57;;;8.00;99.90;;;;;;10471394;28;20244;-75
2022/11/10 21:17:51;;;;;;;8.33;5.70;;;8.00;99.90;;;;;;10475059;28;20574;-75
2022/11/10 21:22:55;;;;;;;11.00;5.50;;;7.90;99.90;;;;;;10456299;28;20221;-76
2022/11/10 21:27:56;;;;;;;9.37;5.90;;;7.90;99.90;;;;;;10480369;28;20962;-77
2022/11/10 21:32:56;;;;;;;7.97;5.57;;;7.90;99.90;;;;;;10518374;28;20291;-77
2022/11/10 21:37:57;;;;;;;9.87;6.07;;;7.90;99.90;;;;;;10521293;28;20228;-77
2022/11/10 21:42:58;;;;;;;6.43;5.03;;;7.90;99.90;;;;;;10513534;28;20212;-75
2022/11/10 21:48:00;;;;;;;10.37;5.70;;;7.80;99.90;;;;;;10514261;28;20207;-75
2022/11/10 21:53:04;;;;;;;8.07;5.73;;;7.80;99.90;;;;;;10515489;28;20227;-74
2022/11/10 21:58:04;;;;;;;9.10;6.00;;;7.70;99.90;;;;;;10518218;28;20247;-74
2022/11/10 22:03:05;;;;;;;10.40;5.90;;;7.70;99.90;;;;;;10515447;28;21052;-73
2022/11/10 22:08:06;;;;;;;10.97;7.00;;;7.70;99.90;;;;;;10517414;28;20308;-73
2022/11/10 22:18:35;;;;;;;10.50;6.63;;;7.60;99.90;;;;;;10510877;28;20228;-73
2022/11/10 22:28:55;;;;;;;11.43;7.00;;;7.50;99.90;;;;;;10513365;28;20204;-73
2022/11/10 22:33:56;;;;;;;8.57;5.97;;;7.40;99.90;;;;;;10514440;28;20600;-72
2022/11/10 22:38:57;;;;;;;12.13;6.67;;;7.40;99.90;;;;;;10512795;28;20662;-72
2022/11/10 22:44:04;;;;;;;9.87;6.70;;;7.30;99.90;;;;;;10517453;28;20281;-74
2022/11/10 22:49:10;;;;;;;15.90;8.10;;;7.30;99.90;;;;;;10512264;28;20222;-75
2022/11/10 22:54:13;;;;;;;11.87;6.67;;;7.20;99.90;;;;;;10518585;28;20558;-75
2022/11/10 22:59:15;;;;;;;9.00;6.33;;;7.20;99.90;;;;;;10501690;28;20758;-74
2022/11/10 23:04:16;;;;;;;10.20;7.10;;;7.10;99.90;;;;;;10514774;28;20296;-74
2022/11/10 23:09:16;;;;;;;10.33;7.43;;;7.20;99.90;;;;;;10511462;28;20927;-74
2022/11/10 23:14:17;;;;;;;10.70;8.10;;;7.10;99.90;;;;;;10523920;28;20269;-74
2022/11/10 23:19:20;;;;;;;11.87;7.30;;;7.10;99.90;;;;;;10515729;28;20935;-76
2022/11/10 23:24:23;;;;;;;13.70;9.77;;;7.10;99.90;;;;;;10515823;28;20222;-75
2022/11/10 23:29:24;;;;;;;12.40;8.33;;;7.00;99.90;;;;;;10499355;28;20763;-75
2022/11/10 23:34:24;;;;;;;12.20;7.87;;;7.00;99.90;;;;;;10515651;28;20291;-75
2022/11/10 23:39:25;;;;;;;11.43;7.53;;;7.00;99.90;;;;;;10515014;28;20228;-73
2022/11/10 23:44:26;;;;;;;12.03;7.23;;;6.90;99.90;;;;;;10499507;28;20995;-74
2022/11/10 23:49:29;;;;;;;9.63;7.03;;;6.80;99.90;;;;;;10515232;28;20217;-75
2022/11/10 23:54:31;;;;;;;12.73;7.33;;;6.80;99.90;;;;;;10508158;28;20268;-74
2022/11/10 23:59:32;;;;;;;16.23;7.77;;;6.80;99.90;;;;;;10507979;28;20325;-75
